Time;durP1;ratioP1;P1;durP2;ratioP2;P2;SDS_P1;SDS_P2;PMS_P1;PMS_P2;Temp;Humidity;BMP_temperature;BMP_pressure;BME280_temperature;BME280_humidity;BME280_pressure;Samples;Min_cycle;Max_cycle;Signal;HPM_P1;HPM_P2
2022/01/19 00:01:19;;;;;;;5.80;3.67;;;;;;;;;;6255097;23;20179;-89
2022/01/19 00:03:48;;;;;;;3.77;3.17;;;;;;;;;;6253999;22;20199;-89
2022/01/19 00:06:17;;;;;;;45.63;15.90;;;;;;;;;;6254374;23;20180;-89
2022/01/19 00:08:45;;;;;;;65.23;23.10;;;;;;;;;;6254394;23;20177;-89
2022/01/19 00:11:16;;;;;;;115.53;23.27;;;;;;;;;;6255315;23;20174;-89
2022/01/19 00:13:44;;;;;;;1.60;1.57;;;;;;;;;;6255235;23;20173;-89
2022/01/19 00:16:13;;;;;;;3.50;2.60;;;;;;;;;;6255797;23;20192;-89
2022/01/19 00:18:42;;;;;;;24.13;8.60;;;;;;;;;;6254120;23;20197;-89
2022/01/19 00:21:10;;;;;;;49.00;12.30;;;;;;;;;;6254844;23;20181;-90
2022/01/19 00:23:39;;;;;;;71.37;14.63;;;;;;;;;;6255524;23;20225;-90
2022/01/19 00:26:08;;;;;;;93.13;18.13;;;;;;;;;;6257442;23;20181;-89
2022/01/19 00:28:38;;;;;;;160.23;25.00;;;;;;;;;;6256882;23;20227;-89
2022/01/19 00:31:06;;;;;;;229.93;40.77;;;;;;;;;;6256618;23;20231;-90
2022/01/19 00:33:36;;;;;;;167.23;32.13;;;;;;;;;;6256236;23;20178;-90
2022/01/19 00:36:06;;;;;;;110.20;21.67;;;;;;;;;;6256773;23;20174;-89
2022/01/19 00:38:34;;;;;;;191.03;28.57;;;;;;;;;;6257073;23;20173;-90
2022/01/19 00:41:03;;;;;;;45.70;10.40;;;;;;;;;;6256615;23;20177;-90
2022/01/19 00:43:35;;;;;;;253.67;37.20;;;;;;;;;;6255859;23;20170;-90
2022/01/19 00:46:05;;;;;;;53.73;11.53;;;;;;;;;;6256670;23;20249;-90
2022/01/19 00:48:35;;;;;;;43.23;7.10;;;;;;;;;;6256769;23;20225;-90
2022/01/19 00:51:03;;;;;;;132.73;19.60;;;;;;;;;;6257105;23;20174;-89
2022/01/19 00:53:31;;;;;;;358.50;46.90;;;;;;;;;;6257062;23;20201;-89
2022/01/19 00:56:00;;;;;;;281.60;36.17;;;;;;;;;;6257210;23;20181;-89
2022/01/19 00:58:29;;;;;;;190.70;28.53;;;;;;;;;;6256840;23;20209;-90
2022/01/19 01:00:57;;;;;;;235.77;38.27;;;;;;;;;;6256841;23;20178;-90
2022/01/19 01:03:27;;;;;;;237.03;42.07;;;;;;;;;;6256806;22;20240;-89
2022/01/19 01:05:56;;;;;;;174.90;31.03;;;;;;;;;;6255798;23;20173;-89
2022/01/19 01:08:24;;;;;;;325.67;42.40;;;;;;;;;;6256276;23;20174;-89
2022/01/19 01:10:53;;;;;;;48.53;8.83;;;;;;;;;;6256632;23;20227;-89
2022/01/19 01:13:29;;;;;;;155.20;25.77;;;;;;;;;;6256124;23;20193;-89
2022/01/19 01:16:03;;;;;;;254.57;35.33;;;;;;;;;;6256601;23;20173;-88
2022/01/19 01:18:34;;;;;;;239.97;33.03;;;;;;;;;;6256065;23;20181;-89
2022/01/19 01:21:02;;;;;;;96.10;18.67;;;;;;;;;;6256794;23;20172;-90
2022/01/19 01:23:32;;;;;;;152.57;22.40;;;;;;;;;;6256385;23;20178;-90
2022/01/19 01:26:01;;;;;;;210.07;28.23;;;;;;;;;;6256572;23;20181;-90
2022/01/19 01:28:29;;;;;;;71.50;11.00;;;;;;;;;;6256256;23;20174;-89
2022/01/19 01:30:58;;;;;;;88.30;14.73;;;;;;;;;;6256976;23;20200;-89
2022/01/19 01:33:27;;;;;;;7.83;4.37;;;;;;;;;;6257335;23;20196;-89
2022/01/19 01:35:56;;;;;;;25.00;6.23;;;;;;;;;;6255957;23;20174;-89
2022/01/19 01:38:25;;;;;;;253.00;36.20;;;;;;;;;;6256133;23;20173;-89
2022/01/19 01:41:12;;;;;;;263.90;38.80;;;;;;;;;;6256200;23;20166;-89
2022/01/19 01:43:41;;;;;;;220.80;33.03;;;;;;;;;;6256614;23;20158;-89
2022/01/19 01:46:19;;;;;;;266.67;35.17;;;;;;;;;;6256418;23;20172;-89
2022/01/19 01:48:48;;;;;;;231.40;30.63;;;;;;;;;;6256393;23;20172;-88
2022/01/19 01:54:05;;;;;;;330.87;49.87;;;;;;;;;;6255544;23;20200;-89
2022/01/19 01:56:33;;;;;;;225.47;33.77;;;;;;;;;;6254967;23;20166;-89
2022/01/19 01:59:02;;;;;;;162.00;21.97;;;;;;;;;;6254056;23;20209;-89
2022/01/19 02:01:30;;;;;;;286.53;35.77;;;;;;;;;;6254656;23;20243;-89
2022/01/19 02:03:59;;;;;;;242.87;27.03;;;;;;;;;;6254640;22;20194;-89
2022/01/19 02:06:40;;;;;;;278.70;37.17;;;;;;;;;;6254166;23;20223;-89
2022/01/19 02:09:12;;;;;;;233.97;30.00;;;;;;;;;;6254373;23;20192;-89
2022/01/19 02:23:08;;;;;;;78.20;9.50;;;;;;;;;;6255287;23;20179;-89
2022/01/19 02:25:41;;;;;;;261.43;37.07;;;;;;;;;;6253783;23;20173;-89
2022/01/19 02:36:52;;;;;;;59.50;12.30;;;;;;;;;;6253063;23;20230;-89
2022/01/19 02:42:09;;;;;;;153.30;32.83;;;;;;;;;;6253553;23;20196;-89
2022/01/19 02:50:11;;;;;;;61.73;18.93;;;;;;;;;;6253679;23;20170;-90
2022/01/19 02:52:40;;;;;;;196.20;38.13;;;;;;;;;;6252696;23;20216;-89
2022/01/19 02:55:09;;;;;;;160.57;34.67;;;;;;;;;;6251851;23;20200;-89
2022/01/19 02:57:39;;;;;;;161.27;35.40;;;;;;;;;;6252847;23;20233;-89
2022/01/19 03:08:45;;;;;;;2.30;2.20;;;;;;;;;;6254159;23;20162;-90
2022/01/19 03:11:17;;;;;;;5.73;3.27;;;;;;;;;;6253764;23;20166;-89
2022/01/19 03:13:46;;;;;;;0.97;0.97;;;;;;;;;;6253733;23;20197;-89
2022/01/19 03:16:15;;;;;;;24.40;10.33;;;;;;;;;;6253590;23;20170;-89
2022/01/19 03:18:44;;;;;;;2.20;2.00;;;;;;;;;;6254209;23;20192;-89
2022/01/19 03:21:13;;;;;;;5.27;4.40;;;;;;;;;;6254406;23;20185;-89
2022/01/19 03:23:43;;;;;;;1.77;1.67;;;;;;;;;;6255036;23;20196;-89
2022/01/19 03:26:12;;;;;;;3.53;3.33;;;;;;;;;;6254080;23;20177;-89
2022/01/19 03:28:40;;;;;;;1.77;1.77;;;;;;;;;;6253718;23;20177;-90
2022/01/19 03:31:09;;;;;;;3.63;3.33;;;;;;;;;;6253472;23;20248;-89
2022/01/19 03:33:38;;;;;;;2.00;2.00;;;;;;;;;;6253522;23;20190;-89
2022/01/19 03:36:06;;;;;;;1.33;1.33;;;;;;;;;;6254155;23;20209;-88
2022/01/19 03:38:35;;;;;;;5.23;4.67;;;;;;;;;;6253591;23;20174;-89
2022/01/19 03:41:05;;;;;;;1.20;1.20;;;;;;;;;;6253064;23;20573;-89
2022/01/19 03:43:33;;;;;;;26.83;12.97;;;;;;;;;;6253076;23;20197;-89
2022/01/19 03:46:04;;;;;;;11.27;4.60;;;;;;;;;;6253721;23;20230;-89
2022/01/19 03:48:38;;;;;;;40.03;14.10;;;;;;;;;;6253125;23;20221;-90
2022/01/19 03:51:07;;;;;;;33.37;14.50;;;;;;;;;;6254568;23;20174;-89
2022/01/19 03:53:36;;;;;;;16.33;9.50;;;;;;;;;;6252947;23;20220;-89
2022/01/19 03:56:05;;;;;;;34.67;14.87;;;;;;;;;;6254253;23;20178;-90
2022/01/19 03:58:35;;;;;;;36.67;14.83;;;;;;;;;;6253661;23;20217;-90
2022/01/19 04:01:04;;;;;;;62.53;27.50;;;;;;;;;;6254476;23;20247;-89
2022/01/19 04:03:53;;;;;;;35.40;13.17;;;;;;;;;;6254689;22;20239;-89
2022/01/19 04:06:25;;;;;;;15.57;8.10;;;;;;;;;;6254387;23;20166;-90
2022/01/19 04:08:53;;;;;;;34.20;16.57;;;;;;;;;;6255322;23;20165;-90
2022/01/19 04:11:25;;;;;;;5.13;4.63;;;;;;;;;;6254068;23;20174;-90
2022/01/19 04:16:42;;;;;;;30.93;13.10;;;;;;;;;;6253702;23;20227;-90
2022/01/19 04:19:22;;;;;;;24.30;12.30;;;;;;;;;;6255205;23;20279;-89
2022/01/19 04:21:51;;;;;;;3.03;2.70;;;;;;;;;;6255064;23;20173;-89
2022/01/19 04:24:19;;;;;;;6.40;5.90;;;;;;;;;;6255102;23;20166;-90
2022/01/19 04:29:52;;;;;;;42.17;20.23;;;;;;;;;;6256126;23;20212;-89
2022/01/19 04:32:26;;;;;;;6.13;3.83;;;;;;;;;;6255496;23;20173;-89
2022/01/19 04:34:55;;;;;;;35.50;14.60;;;;;;;;;;6255750;23;20189;-90
2022/01/19 04:37:35;;;;;;;52.63;20.20;;;;;;;;;;6256136;23;20224;-90
2022/01/19 04:48:49;;;;;;;42.83;18.90;;;;;;;;;;6208551;23;20189;-90
2022/01/19 05:02:44;;;;;;;29.50;18.13;;;;;;;;;;6253857;22;20173;-90
2022/01/19 05:05:20;;;;;;;31.10;16.17;;;;;;;;;;6254262;23;20211;-90
2022/01/19 05:07:57;;;;;;;41.37;23.00;;;;;;;;;;6253817;23;20169;-90
2022/01/19 05:13:34;;;;;;;18.07;11.87;;;;;;;;;;6255569;23;20166;-90
2022/01/19 05:16:05;;;;;;;23.63;14.13;;;;;;;;;;6256287;23;20182;-90
2022/01/19 05:18:33;;;;;;;33.73;16.30;;;;;;;;;;6256012;23;20170;-89
2022/01/19 05:21:02;;;;;;;9.97;8.03;;;;;;;;;;6256235;23;20174;-89
2022/01/19 05:23:31;;;;;;;26.17;13.93;;;;;;;;;;6254086;23;20178;-89
2022/01/19 05:25:59;;;;;;;9.40;6.33;;;;;;;;;;6255214;23;20174;-89
2022/01/19 05:28:28;;;;;;;32.13;17.57;;;;;;;;;;6256174;23;20276;-90
2022/01/19 05:30:56;;;;;;;20.80;10.87;;;;;;;;;;6255251;23;20184;-89
2022/01/19 05:33:26;;;;;;;21.43;12.90;;;;;;;;;;6255976;23;20181;-89
2022/01/19 05:35:55;;;;;;;16.57;9.73;;;;;;;;;;6255337;23;20244;-89
2022/01/19 05:38:23;;;;;;;31.33;15.03;;;;;;;;;;6255093;23;20177;-90
2022/01/19 05:40:51;;;;;;;27.10;14.43;;;;;;;;;;6254981;23;20173;-89
2022/01/19 05:43:20;;;;;;;32.87;18.23;;;;;;;;;;6254820;23;20170;-89
2022/01/19 05:45:48;;;;;;;36.30;20.80;;;;;;;;;;6255665;23;20586;-90
2022/01/19 05:48:17;;;;;;;34.63;20.37;;;;;;;;;;6254343;23;20174;-89
2022/01/19 05:50:47;;;;;;;37.33;21.53;;;;;;;;;;6255031;23;20181;-90
2022/01/19 05:53:16;;;;;;;37.03;18.83;;;;;;;;;;6254734;23;20231;-90
2022/01/19 05:55:46;;;;;;;38.87;22.60;;;;;;;;;;6255297;23;20189;-90
2022/01/19 05:58:19;;;;;;;37.53;19.23;;;;;;;;;;6270262;23;20205;-91
2022/01/19 06:01:00;;;;;;;36.27;20.37;;;;;;;;;;6270876;23;20190;-91
2022/01/19 06:03:35;;;;;;;38.03;21.67;;;;;;;;;;6269899;22;20193;-88
2022/01/19 06:06:15;;;;;;;32.67;18.57;;;;;;;;;;6270739;23;20166;-91
2022/01/19 06:08:49;;;;;;;37.73;19.83;;;;;;;;;;6270483;23;20196;-89
2022/01/19 06:11:18;;;;;;;36.97;20.87;;;;;;;;;;6269360;23;20180;-90
2022/01/19 06:13:55;;;;;;;21.00;12.50;;;;;;;;;;6269999;23;20184;-92
2022/01/19 06:16:29;;;;;;;23.20;16.37;;;;;;;;;;6271815;23;20196;-90
2022/01/19 06:19:19;;;;;;;37.27;21.30;;;;;;;;;;6271047;23;20180;-90
2022/01/19 06:21:59;;;;;;;25.47;14.53;;;;;;;;;;6269542;23;20153;-90
2022/01/19 06:24:35;;;;;;;40.37;22.13;;;;;;;;;;6269331;23;20164;-91
2022/01/19 06:27:05;;;;;;;33.27;16.07;;;;;;;;;;6266554;23;20197;-91
2022/01/19 06:29:34;;;;;;;29.17;18.03;;;;;;;;;;6267033;23;20174;-91
2022/01/19 06:32:08;;;;;;;35.93;19.67;;;;;;;;;;6266656;23;20178;-90
2022/01/19 06:34:37;;;;;;;26.03;16.67;;;;;;;;;;6264322;23;20198;-93
2022/01/19 06:37:10;;;;;;;33.80;20.80;;;;;;;;;;6261524;23;20174;-90
2022/01/19 06:39:40;;;;;;;35.93;20.47;;;;;;;;;;6268059;23;20174;-91
2022/01/19 06:42:09;;;;;;;36.60;22.93;;;;;;;;;;6264612;23;20178;-90
2022/01/19 06:44:37;;;;;;;21.17;11.43;;;;;;;;;;6263904;23;20169;-92
2022/01/19 06:47:06;;;;;;;43.57;21.53;;;;;;;;;;6269290;23;20177;-90
2022/01/19 06:49:38;;;;;;;34.33;21.77;;;;;;;;;;6269371;23;20170;-90
2022/01/19 06:52:09;;;;;;;28.60;14.90;;;;;;;;;;6265513;23;20170;-87
2022/01/19 06:54:38;;;;;;;27.57;15.67;;;;;;;;;;6253570;23;20213;-89
2022/01/19 06:57:06;;;;;;;38.80;22.10;;;;;;;;;;6247413;23;20189;-90
2022/01/19 06:59:35;;;;;;;14.13;10.03;;;;;;;;;;6247074;23;20259;-90
2022/01/19 07:02:04;;;;;;;15.13;8.27;;;;;;;;;;6248297;23;20231;-84
2022/01/19 07:04:32;;;;;;;8.23;5.33;;;;;;;;;;6249872;22;20193;-83
2022/01/19 07:07:01;;;;;;;3.53;3.33;;;;;;;;;;6250491;23;20174;-84
2022/01/19 07:09:30;;;;;;;9.73;8.07;;;;;;;;;;6246506;23;20181;-83
2022/01/19 07:12:00;;;;;;;6.20;5.70;;;;;;;;;;6247071;23;20170;-84
2022/01/19 07:14:29;;;;;;;9.80;6.53;;;;;;;;;;6246700;23;20227;-85
2022/01/19 07:16:57;;;;;;;4.77;4.47;;;;;;;;;;6247250;23;20194;-84
2022/01/19 07:19:25;;;;;;;2.20;2.03;;;;;;;;;;6252875;23;20204;-84
2022/01/19 07:21:55;;;;;;;16.77;9.37;;;;;;;;;;6251917;23;20183;-92
2022/01/19 07:24:24;;;;;;;5.93;4.73;;;;;;;;;;6252709;23;20174;-90
2022/01/19 07:26:54;;;;;;;24.70;12.57;;;;;;;;;;6252830;23;20199;-92
2022/01/19 07:29:22;;;;;;;33.33;20.27;;;;;;;;;;6253036;23;20221;-87
2022/01/19 07:31:51;;;;;;;24.87;13.37;;;;;;;;;;6249181;23;20200;-89
2022/01/19 07:34:19;;;;;;;28.93;18.30;;;;;;;;;;6248801;23;20175;-89
2022/01/19 07:36:48;;;;;;;8.93;6.63;;;;;;;;;;6249458;23;20206;-89
2022/01/19 07:39:17;;;;;;;5.00;4.07;;;;;;;;;;6250443;23;20198;-88
2022/01/19 07:41:45;;;;;;;30.70;18.77;;;;;;;;;;6249697;23;20175;-89
2022/01/19 07:44:15;;;;;;;8.93;8.03;;;;;;;;;;6248278;23;20181;-89
2022/01/19 07:46:44;;;;;;;6.03;5.53;;;;;;;;;;6248158;23;20170;-89
2022/01/19 07:49:12;;;;;;;19.13;12.97;;;;;;;;;;6248295;23;20174;-88
2022/01/19 07:51:41;;;;;;;4.00;2.67;;;;;;;;;;6248454;23;20175;-89
2022/01/19 07:54:10;;;;;;;11.87;7.77;;;;;;;;;;6251024;23;20180;-92
2022/01/19 07:56:39;;;;;;;6.93;4.10;;;;;;;;;;6253231;23;20216;-91
2022/01/19 07:59:08;;;;;;;5.80;3.83;;;;;;;;;;6259214;23;20206;-91
2022/01/19 08:01:41;;;;;;;5.97;5.40;;;;;;;;;;6264909;23;20173;-91
2022/01/19 08:04:11;;;;;;;7.57;4.33;;;;;;;;;;6265725;22;20199;-92
2022/01/19 08:06:42;;;;;;;8.33;4.23;;;;;;;;;;6265490;23;20167;-92
2022/01/19 08:09:12;;;;;;;9.73;6.60;;;;;;;;;;6266373;23;20173;-91
2022/01/19 08:11:44;;;;;;;13.50;4.47;;;;;;;;;;6266272;23;20174;-89
2022/01/19 08:14:17;;;;;;;5.90;3.80;;;;;;;;;;6239809;23;20201;-91
2022/01/19 08:16:50;;;;;;;1.07;1.07;;;;;;;;;;6266534;23;20221;-88
2022/01/19 08:19:25;;;;;;;3.30;3.03;;;;;;;;;;6264531;23;20173;-88
2022/01/19 08:21:56;;;;;;;8.07;4.90;;;;;;;;;;6249869;23;20196;-92
2022/01/19 08:24:25;;;;;;;21.00;6.30;;;;;;;;;;6251294;23;20182;-91
2022/01/19 08:26:55;;;;;;;16.47;8.87;;;;;;;;;;6251012;23;20170;-91
2022/01/19 08:29:27;;;;;;;3.83;3.33;;;;;;;;;;6265247;23;20171;-89
2022/01/19 08:32:00;;;;;;;4.83;3.50;;;;;;;;;;6265177;23;20175;-91
2022/01/19 08:34:49;;;;;;;4.03;3.70;;;;;;;;;;6260522;23;20175;-91
2022/01/19 08:37:19;;;;;;;10.87;7.80;;;;;;;;;;6258073;23;20197;-92
2022/01/19 08:39:48;;;;;;;2.50;2.30;;;;;;;;;;6257793;23;20174;-92
2022/01/19 08:42:17;;;;;;;13.37;6.30;;;;;;;;;;6257055;23;20175;-91
2022/01/19 08:44:45;;;;;;;6.03;4.97;;;;;;;;;;6254720;23;20174;-92
2022/01/19 08:47:17;;;;;;;11.53;6.33;;;;;;;;;;6259127;23;20175;-92
2022/01/19 08:49:55;;;;;;;10.53;5.87;;;;;;;;;;6261827;23;20197;-91
2022/01/19 08:52:24;;;;;;;14.53;9.07;;;;;;;;;;6260311;23;20185;-88
2022/01/19 08:54:56;;;;;;;5.47;4.93;;;;;;;;;;6264502;23;20191;-90
2022/01/19 08:57:26;;;;;;;18.40;10.23;;;;;;;;;;6268350;23;20194;-91
2022/01/19 08:59:56;;;;;;;18.97;11.37;;;;;;;;;;6240303;23;20167;-90
2022/01/19 09:02:26;;;;;;;17.70;6.00;;;;;;;;;;6253724;22;20217;-91
2022/01/19 09:04:55;;;;;;;17.97;7.37;;;;;;;;;;6250148;23;20169;-91
2022/01/19 09:07:23;;;;;;;17.37;9.13;;;;;;;;;;6250268;23;20170;-95
2022/01/19 09:09:52;;;;;;;10.90;5.50;;;;;;;;;;6249165;23;20672;-94
2022/01/19 09:12:22;;;;;;;1.17;1.17;;;;;;;;;;6249288;23;20173;-94
2022/01/19 09:14:51;;;;;;;2.10;2.00;;;;;;;;;;6248579;23;20202;-93
2022/01/19 09:17:19;;;;;;;3.83;3.40;;;;;;;;;;6248348;23;20202;-92
2022/01/19 09:19:50;;;;;;;9.27;6.00;;;;;;;;;;6247522;23;20170;-93
2022/01/19 09:22:18;;;;;;;11.13;6.37;;;;;;;;;;6249287;23;20196;-90
2022/01/19 09:24:51;;;;;;;9.23;6.73;;;;;;;;;;6251019;23;20210;-90
2022/01/19 09:27:23;;;;;;;19.80;15.73;;;;;;;;;;6250557;23;20179;-91
2022/01/19 09:29:52;;;;;;;9.00;7.27;;;;;;;;;;6250306;23;20181;-94
2022/01/19 09:32:22;;;;;;;15.10;8.07;;;;;;;;;;6252826;23;20228;-93
2022/01/19 09:34:58;;;;;;;12.13;7.93;;;;;;;;;;6256114;23;20201;-92
2022/01/19 09:37:30;;;;;;;13.03;9.80;;;;;;;;;;6258638;23;20182;-92
2022/01/19 09:40:31;;;;;;;8.03;5.90;;;;;;;;;;6262505;23;20178;-92
2022/01/19 09:43:08;;;;;;;10.77;5.90;;;;;;;;;;6257534;23;20217;-92
2022/01/19 09:45:36;;;;;;;6.10;4.70;;;;;;;;;;6254381;23;20174;-93
2022/01/19 09:48:05;;;;;;;9.97;5.87;;;;;;;;;;6248510;23;20166;-91
2022/01/19 09:50:35;;;;;;;2.40;2.27;;;;;;;;;;6249329;23;20220;-93
2022/01/19 09:53:04;;;;;;;8.83;5.07;;;;;;;;;;6248042;23;20187;-93
2022/01/19 09:55:33;;;;;;;7.07;5.43;;;;;;;;;;6247361;23;20230;-91
2022/01/19 09:58:02;;;;;;;11.00;7.00;;;;;;;;;;6248480;23;20260;-90
2022/01/19 10:00:31;;;;;;;4.67;3.80;;;;;;;;;;6251822;23;20176;-90
2022/01/19 10:03:16;;;;;;;5.20;3.97;;;;;;;;;;6250697;22;20195;-89
2022/01/19 10:06:03;;;;;;;8.93;3.77;;;;;;;;;;6248440;23;20174;-89
2022/01/19 10:08:35;;;;;;;4.83;3.30;;;;;;;;;;6249829;23;20216;-89
2022/01/19 10:11:13;;;;;;;9.27;3.60;;;;;;;;;;6252456;23;20180;-90
2022/01/19 10:19:19;;;;;;;2.30;2.10;;;;;;;;;;6252706;23;20164;-92
2022/01/19 10:22:00;;;;;;;9.07;3.23;;;;;;;;;;6256953;23;20173;-91
2022/01/19 10:24:46;;;;;;;3.03;2.23;;;;;;;;;;6252207;23;20228;-92
2022/01/19 10:27:19;;;;;;;3.73;2.33;;;;;;;;;;6248743;23;20170;-92
2022/01/19 10:29:48;;;;;;;2.17;1.97;;;;;;;;;;6248696;23;20194;-92
2022/01/19 10:32:24;;;;;;;7.70;1.90;;;;;;;;;;6252530;23;20174;-90
2022/01/19 10:34:54;;;;;;;2.77;2.03;;;;;;;;;;6251457;23;20176;-91
2022/01/19 10:37:23;;;;;;;9.30;4.87;;;;;;;;;;6247242;23;20195;-90
2022/01/19 10:40:13;;;;;;;7.23;3.50;;;;;;;;;;6247240;23;20179;-91
2022/01/19 10:42:45;;;;;;;6.13;3.30;;;;;;;;;;6246991;23;20246;-92
2022/01/19 10:45:15;;;;;;;10.60;3.40;;;;;;;;;;6247126;23;20172;-90
2022/01/19 10:47:45;;;;;;;7.03;3.37;;;;;;;;;;6248139;23;20185;-92
2022/01/19 10:50:15;;;;;;;6.20;2.93;;;;;;;;;;6247656;23;20167;-89
2022/01/19 10:52:46;;;;;;;11.00;5.60;;;;;;;;;;6248388;23;20176;-94
2022/01/19 10:55:29;;;;;;;4.67;2.37;;;;;;;;;;6257947;23;20175;-89
2022/01/19 10:58:04;;;;;;;3.33;2.57;;;;;;;;;;6250993;23;20221;-92
2022/01/19 11:00:40;;;;;;;12.50;6.20;;;;;;;;;;6251511;23;20198;-92
2022/01/19 11:03:31;;;;;;;10.67;2.53;;;;;;;;;;6264437;22;20194;-92
2022/01/19 11:06:23;;;;;;;5.20;2.33;;;;;;;;;;6263364;23;20286;-93
2022/01/19 11:08:58;;;;;;;5.20;2.70;;;;;;;;;;6264712;23;20172;-92
2022/01/19 11:11:32;;;;;;;9.07;3.40;;;;;;;;;;6261335;23;20167;-92
2022/01/19 11:14:04;;;;;;;9.43;3.90;;;;;;;;;;6247868;23;20202;-93
2022/01/19 11:16:33;;;;;;;1.63;1.53;;;;;;;;;;6247575;23;20181;-94
2022/01/19 11:19:02;;;;;;;10.73;3.10;;;;;;;;;;6251294;23;20233;-93
2022/01/19 11:21:34;;;;;;;14.73;6.67;;;;;;;;;;6247638;23;20237;-93
2022/01/19 11:24:06;;;;;;;7.27;4.93;;;;;;;;;;6248426;23;20190;-93
2022/01/19 11:26:39;;;;;;;2.50;2.30;;;;;;;;;;6247363;23;20163;-92
2022/01/19 11:29:18;;;;;;;5.63;3.60;;;;;;;;;;6246922;23;20181;-92
2022/01/19 11:31:46;;;;;;;14.40;4.73;;;;;;;;;;6248582;23;20198;-90
2022/01/19 11:34:15;;;;;;;1.30;1.30;;;;;;;;;;6249817;23;20181;-94
2022/01/19 11:36:44;;;;;;;4.40;3.23;;;;;;;;;;6251799;23;20182;-91
2022/01/19 11:39:14;;;;;;;4.13;2.50;;;;;;;;;;6250685;23;20210;-91
2022/01/19 11:41:47;;;;;;;9.37;3.03;;;;;;;;;;6249981;23;20175;-92
2022/01/19 11:44:19;;;;;;;13.80;2.53;;;;;;;;;;6249681;23;20179;-94
2022/01/19 11:46:49;;;;;;;8.87;4.10;;;;;;;;;;6250533;23;20182;-93
2022/01/19 11:49:19;;;;;;;8.10;3.93;;;;;;;;;;6250497;23;20175;-93
2022/01/19 11:51:48;;;;;;;6.23;4.57;;;;;;;;;;6250422;23;20233;-94
2022/01/19 11:54:19;;;;;;;6.07;3.37;;;;;;;;;;6250490;23;20201;-94
2022/01/19 11:57:07;;;;;;;11.53;5.10;;;;;;;;;;6251139;23;20181;-94
2022/01/19 11:59:51;;;;;;;5.23;2.57;;;;;;;;;;6250188;23;20237;-93
2022/01/19 12:02:37;;;;;;;3.20;2.60;;;;;;;;;;6248826;22;20175;-93
2022/01/19 12:05:28;;;;;;;9.83;3.80;;;;;;;;;;6249482;23;20215;-92
2022/01/19 12:07:58;;;;;;;9.67;6.93;;;;;;;;;;6250727;23;20178;-93
2022/01/19 12:10:43;;;;;;;8.53;5.10;;;;;;;;;;6250943;23;20168;-92
2022/01/19 12:13:56;;;;;;;10.80;5.20;;;;;;;;;;6253170;23;20218;-92
2022/01/19 12:16:37;;;;;;;18.57;9.00;;;;;;;;;;6251115;23;20185;-92
2022/01/19 12:19:15;;;;;;;13.13;6.03;;;;;;;;;;6251942;23;20195;-93
2022/01/19 12:21:45;;;;;;;8.87;6.17;;;;;;;;;;6251655;23;20177;-93
2022/01/19 12:24:33;;;;;;;6.93;4.57;;;;;;;;;;6255476;23;20168;-93
2022/01/19 12:27:23;;;;;;;6.70;4.60;;;;;;;;;;6253651;23;20187;-93
2022/01/19 12:29:54;;;;;;;11.63;5.30;;;;;;;;;;6253437;23;20167;-94
2022/01/19 12:32:44;;;;;;;14.93;4.77;;;;;;;;;;6253521;23;20175;-93
2022/01/19 12:35:16;;;;;;;2.93;2.07;;;;;;;;;;6253071;23;20172;-93
2022/01/19 12:37:46;;;;;;;13.53;6.30;;;;;;;;;;6253315;23;20198;-94
2022/01/19 12:40:27;;;;;;;11.73;4.80;;;;;;;;;;6252743;23;20186;-93
2022/01/19 12:42:57;;;;;;;8.27;4.70;;;;;;;;;;6253856;23;20174;-93
2022/01/19 12:45:27;;;;;;;21.27;8.00;;;;;;;;;;6253954;23;20213;-92
2022/01/19 12:47:56;;;;;;;8.30;4.00;;;;;;;;;;6253853;23;20206;-91
2022/01/19 12:50:38;;;;;;;13.37;4.57;;;;;;;;;;6254691;23;20187;-94
2022/01/19 12:53:09;;;;;;;7.53;2.60;;;;;;;;;;6254908;23;20170;-93
2022/01/19 12:55:43;;;;;;;11.90;4.53;;;;;;;;;;6255255;23;20174;-94
2022/01/19 12:58:14;;;;;;;7.50;4.10;;;;;;;;;;6254695;23;20203;-94
2022/01/19 13:00:46;;;;;;;11.30;5.57;;;;;;;;;;6254443;23;20167;-94
2022/01/19 13:03:23;;;;;;;10.93;3.97;;;;;;;;;;6254803;22;20226;-93
2022/01/19 13:05:56;;;;;;;9.93;4.97;;;;;;;;;;6254460;23;20171;-94
2022/01/19 13:08:29;;;;;;;3.30;3.00;;;;;;;;;;6254678;23;20169;-94
2022/01/19 13:11:05;;;;;;;10.30;4.07;;;;;;;;;;6253253;23;20177;-94
2022/01/19 13:13:46;;;;;;;5.17;4.17;;;;;;;;;;6254239;23;20274;-94
2022/01/19 13:16:26;;;;;;;8.07;3.73;;;;;;;;;;6254511;23;20169;-93
2022/01/19 13:19:06;;;;;;;11.40;4.70;;;;;;;;;;6254589;23;20205;-94
2022/01/19 13:21:37;;;;;;;14.33;6.53;;;;;;;;;;6255019;23;20177;-94
2022/01/19 13:24:10;;;;;;;12.97;5.97;;;;;;;;;;6253665;23;20206;-93
2022/01/19 13:26:40;;;;;;;10.47;5.40;;;;;;;;;;6249247;23;20176;-94
2022/01/19 13:29:15;;;;;;;10.27;3.90;;;;;;;;;;6250159;23;20173;-95
2022/01/19 13:31:53;;;;;;;11.10;5.33;;;;;;;;;;6250665;23;20181;-94
2022/01/19 13:34:22;;;;;;;9.90;6.57;;;;;;;;;;6249467;23;20175;-94
2022/01/19 13:36:55;;;;;;;8.73;6.33;;;;;;;;;;6249861;23;20170;-93
2022/01/19 13:39:25;;;;;;;19.20;8.93;;;;;;;;;;6248227;23;20191;-93
2022/01/19 13:41:54;;;;;;;7.33;5.00;;;;;;;;;;6248961;23;20209;-93
2022/01/19 13:44:25;;;;;;;13.30;6.73;;;;;;;;;;6248942;23;20180;-93
2022/01/19 13:47:09;;;;;;;22.50;10.63;;;;;;;;;;6249892;23;20178;-93
2022/01/19 13:49:38;;;;;;;18.77;8.47;;;;;;;;;;6248578;23;20166;-94
2022/01/19 13:52:10;;;;;;;17.37;6.03;;;;;;;;;;6248584;23;20182;-94
2022/01/19 13:54:43;;;;;;;14.50;7.10;;;;;;;;;;6254810;23;20174;-92
2022/01/19 13:57:27;;;;;;;9.63;5.50;;;;;;;;;;6265012;23;20172;-95
2022/01/19 13:59:56;;;;;;;8.40;4.03;;;;;;;;;;6250779;23;20206;-95
2022/01/19 14:02:30;;;;;;;14.00;6.23;;;;;;;;;;6250208;22;20186;-89
2022/01/19 14:05:19;;;;;;;8.53;4.77;;;;;;;;;;6249215;23;20175;-94
2022/01/19 14:07:49;;;;;;;10.73;4.67;;;;;;;;;;6249379;23;20173;-95
2022/01/19 14:10:25;;;;;;;13.13;5.53;;;;;;;;;;6249583;23;20246;-94
2022/01/19 14:12:55;;;;;;;17.57;6.63;;;;;;;;;;6248550;23;20170;-94
2022/01/19 14:15:27;;;;;;;12.20;6.20;;;;;;;;;;6248839;23;20252;-93
2022/01/19 14:17:56;;;;;;;11.93;5.37;;;;;;;;;;6249250;23;20201;-92
2022/01/19 14:20:24;;;;;;;19.00;8.40;;;;;;;;;;6248889;23;20201;-93
2022/01/19 14:23:08;;;;;;;18.53;10.20;;;;;;;;;;6248498;23;20180;-93
2022/01/19 14:25:36;;;;;;;13.27;6.60;;;;;;;;;;6249086;23;20177;-92
2022/01/19 14:28:14;;;;;;;7.43;4.80;;;;;;;;;;6248913;23;20174;-92
2022/01/19 14:30:43;;;;;;;12.03;7.20;;;;;;;;;;6249049;23;20170;-92
2022/01/19 14:33:31;;;;;;;14.53;7.63;;;;;;;;;;6248447;23;20181;-92
2022/01/19 14:36:02;;;;;;;17.37;9.00;;;;;;;;;;6248719;23;20174;-92
2022/01/19 14:38:36;;;;;;;16.23;5.90;;;;;;;;;;6249402;23;20185;-92
2022/01/19 14:41:06;;;;;;;9.80;4.47;;;;;;;;;;6248345;23;20205;-91
2022/01/19 14:43:42;;;;;;;9.50;4.70;;;;;;;;;;6248381;23;20228;-92
2022/01/19 14:46:13;;;;;;;11.43;4.37;;;;;;;;;;6248771;23;20189;-91
2022/01/19 14:48:43;;;;;;;18.87;6.80;;;;;;;;;;6249137;23;20224;-92
2022/01/19 14:51:18;;;;;;;13.33;6.23;;;;;;;;;;6248843;23;20171;-91
2022/01/19 14:53:49;;;;;;;8.07;5.53;;;;;;;;;;6248875;23;20175;-91
2022/01/19 14:56:17;;;;;;;14.77;6.50;;;;;;;;;;6248433;23;20171;-92
2022/01/19 14:58:46;;;;;;;6.90;4.37;;;;;;;;;;6248043;23;20206;-92
2022/01/19 15:01:14;;;;;;;16.97;7.27;;;;;;;;;;6248462;23;20170;-92
2022/01/19 15:03:45;;;;;;;9.33;5.17;;;;;;;;;;6249297;22;20223;-91
2022/01/19 15:06:14;;;;;;;7.47;4.63;;;;;;;;;;6248525;23;20171;-91
2022/01/19 15:08:42;;;;;;;8.47;4.67;;;;;;;;;;6247923;23;20228;-91
2022/01/19 15:11:15;;;;;;;15.73;6.57;;;;;;;;;;6248330;23;20237;-92
2022/01/19 15:13:44;;;;;;;12.13;7.13;;;;;;;;;;6248644;23;20193;-92
2022/01/19 15:16:15;;;;;;;9.37;5.13;;;;;;;;;;6248991;23;20163;-91
2022/01/19 15:18:44;;;;;;;10.60;4.47;;;;;;;;;;6248219;23;20179;-91
2022/01/19 15:21:12;;;;;;;9.17;6.53;;;;;;;;;;6248018;23;20240;-89
2022/01/19 15:23:41;;;;;;;2.33;2.13;;;;;;;;;;6248233;23;20175;-90
2022/01/19 15:26:09;;;;;;;11.20;5.00;;;;;;;;;;6248112;23;20185;-90
2022/01/19 15:28:39;;;;;;;28.50;4.80;;;;;;;;;;6248121;23;20180;-90
2022/01/19 15:31:09;;;;;;;12.83;5.27;;;;;;;;;;6247244;23;20170;-90
2022/01/19 15:33:38;;;;;;;10.93;5.13;;;;;;;;;;6247554;23;20191;-90
2022/01/19 15:36:07;;;;;;;7.63;4.20;;;;;;;;;;6247277;23;20175;-90
2022/01/19 15:38:36;;;;;;;14.30;3.87;;;;;;;;;;6247842;23;20174;-91
2022/01/19 15:41:06;;;;;;;8.60;2.63;;;;;;;;;;6247738;23;20206;-90
2022/01/19 15:43:35;;;;;;;10.83;4.97;;;;;;;;;;6247053;23;20181;-90
2022/01/19 15:46:04;;;;;;;8.83;3.77;;;;;;;;;;6247043;23;20184;-90
2022/01/19 15:48:53;;;;;;;13.83;4.80;;;;;;;;;;6247393;23;20178;-91
2022/01/19 15:51:21;;;;;;;5.33;2.67;;;;;;;;;;6247177;23;20173;-91
2022/01/19 15:53:50;;;;;;;12.07;4.23;;;;;;;;;;6247122;23;20170;-91
2022/01/19 15:56:21;;;;;;;10.77;3.80;;;;;;;;;;6248243;23;20174;-89
2022/01/19 15:58:50;;;;;;;5.23;2.90;;;;;;;;;;6246845;23;20205;-90
2022/01/19 16:01:20;;;;;;;8.97;3.23;;;;;;;;;;6247664;23;20237;-91
2022/01/19 16:03:49;;;;;;;6.20;2.97;;;;;;;;;;6247270;22;20194;-90
2022/01/19 16:06:20;;;;;;;13.40;4.13;;;;;;;;;;6248234;23;20173;-91
2022/01/19 16:08:49;;;;;;;15.97;4.73;;;;;;;;;;6247777;23;20174;-91
2022/01/19 16:11:17;;;;;;;7.80;2.73;;;;;;;;;;6247418;23;20170;-91